createdAt,value
2022-09-06T00:00:13.066Z,18.10
2022-09-06T00:02:40.208Z,18.00
2022-09-06T00:05:07.334Z,18.00
2022-09-06T00:07:34.103Z,18.00
2022-09-06T00:10:01.589Z,18.00
2022-09-06T00:12:28.446Z,17.90
2022-09-06T00:14:55.228Z,17.90
2022-09-06T00:17:22.043Z,17.90
2022-09-06T00:19:48.862Z,17.80
2022-09-06T00:22:15.654Z,17.90
2022-09-06T00:24:42.452Z,17.90
2022-09-06T00:27:09.271Z,17.90
2022-09-06T00:29:36.072Z,17.90
2022-09-06T00:32:02.981Z,17.90
2022-09-06T00:34:29.756Z,17.90
2022-09-06T00:36:56.519Z,17.80
2022-09-06T00:39:23.377Z,17.80
2022-09-06T00:41:50.252Z,17.70
2022-09-06T00:44:17.059Z,17.70
2022-09-06T00:46:45.350Z,17.70
2022-09-06T00:49:25.608Z,17.70
2022-09-06T00:51:53.659Z,17.70
2022-09-06T00:54:20.489Z,17.70
2022-09-06T00:56:47.289Z,17.60
2022-09-06T00:59:14.365Z,17.60
2022-09-06T01:01:41.277Z,17.50
2022-09-06T01:04:08.178Z,17.50
2022-09-06T01:06:41.157Z,17.60
2022-09-06T01:09:23.448Z,17.60
2022-09-06T01:12:18.851Z,17.60
2022-09-06T01:14:51.668Z,17.60
2022-09-06T01:17:50.563Z,17.60
2022-09-06T01:20:20.100Z,17.50
2022-09-06T01:22:58.721Z,17.50
2022-09-06T01:25:45.774Z,17.50
2022-09-06T01:28:35.964Z,17.40
2022-09-06T01:31:11.952Z,17.40
2022-09-06T01:33:57.552Z,17.30
2022-09-06T01:36:24.889Z,17.30
2022-09-06T01:38:51.664Z,17.30
2022-09-06T01:41:18.476Z,17.30
2022-09-06T01:43:46.190Z,17.20
2022-09-06T01:46:15.706Z,17.30
2022-09-06T01:48:45.546Z,17.30
2022-09-06T01:51:18.207Z,17.30
2022-09-06T01:53:48.145Z,17.20
2022-09-06T01:56:33.702Z,17.20
2022-09-06T01:59:18.743Z,17.10
2022-09-06T02:02:05.799Z,17.10
2022-09-06T02:04:38.679Z,17.10
2022-09-06T02:07:08.892Z,17.10
2022-09-06T02:09:36.822Z,17.10
2022-09-06T02:12:04.306Z,17.10
2022-09-06T02:14:36.285Z,17.10
2022-09-06T02:17:03.230Z,17.10
2022-09-06T02:19:30.047Z,17.00
2022-09-06T02:21:56.825Z,17.00
2022-09-06T02:24:25.619Z,17.00
2022-09-06T02:26:52.369Z,17.00
2022-09-06T02:29:19.156Z,17.00
2022-09-06T02:32:07.589Z,17.00
2022-09-06T02:34:34.536Z,17.00
2022-09-06T02:37:01.378Z,17.00
2022-09-06T02:39:28.166Z,16.90
2022-09-06T02:41:55.002Z,16.90
2022-09-06T02:44:21.924Z,16.90
2022-09-06T02:46:48.731Z,16.90
2022-09-06T02:49:15.537Z,16.90
2022-09-06T02:51:42.311Z,16.90
2022-09-06T02:54:09.075Z,16.90
2022-09-06T02:56:36.779Z,17.00
2022-09-06T02:59:05.560Z,16.90
2022-09-06T03:01:32.940Z,16.90
2022-09-06T03:03:59.926Z,16.90
2022-09-06T03:06:26.703Z,16.90
2022-09-06T03:08:53.538Z,16.90
2022-09-06T03:11:20.320Z,16.90
2022-09-06T03:13:47.116Z,16.80
2022-09-06T03:16:14.066Z,16.80
2022-09-06T03:18:40.948Z,16.70
2022-09-06T03:21:07.750Z,16.70
2022-09-06T03:23:34.623Z,16.60
2022-09-06T03:26:01.417Z,16.60
2022-09-06T03:28:28.727Z,16.60
2022-09-06T03:30:55.678Z,16.60
2022-09-06T03:33:22.782Z,16.50
2022-09-06T03:35:53.684Z,16.40
2022-09-06T03:38:20.589Z,16.40
2022-09-06T03:40:47.599Z,16.40
2022-09-06T03:43:14.673Z,16.40
2022-09-06T03:45:44.640Z,16.40
2022-09-06T03:48:11.464Z,16.40
2022-09-06T03:50:38.256Z,16.40
2022-09-06T03:53:05.053Z,16.40
2022-09-06T03:55:31.824Z,16.40
2022-09-06T03:57:58.610Z,16.40
2022-09-06T04:00:25.409Z,16.40
2022-09-06T04:02:52.170Z,16.40
2022-09-06T04:05:18.999Z,16.40
2022-09-06T04:07:45.843Z,16.40
2022-09-06T04:10:12.658Z,16.40
2022-09-06T04:12:39.537Z,16.50
2022-09-06T04:15:06.685Z,16.40
2022-09-06T04:17:33.465Z,16.50
2022-09-06T04:20:00.235Z,16.50
2022-09-06T04:22:27.073Z,16.50
2022-09-06T04:24:53.928Z,16.50
2022-09-06T04:27:20.698Z,16.40
2022-09-06T04:29:47.504Z,16.40
2022-09-06T04:32:14.283Z,16.50
2022-09-06T04:34:41.049Z,16.50
2022-09-06T04:37:07.879Z,16.60
2022-09-06T04:39:34.743Z,16.70
2022-09-06T04:42:01.573Z,16.70
2022-09-06T04:44:28.356Z,16.80
2022-09-06T04:47:09.916Z,16.70
2022-09-06T04:49:36.688Z,16.70
2022-09-06T04:52:03.599Z,16.90
2022-09-06T04:54:30.426Z,17.00
2022-09-06T04:56:57.208Z,17.10
2022-09-06T04:59:24.038Z,17.20
2022-09-06T05:01:50.895Z,17.20
2022-09-06T05:04:17.729Z,17.30
2022-09-06T05:06:45.524Z,17.40
2022-09-06T05:09:12.418Z,17.50
2022-09-06T05:11:39.214Z,17.60
2022-09-06T05:14:05.981Z,18.30
2022-09-06T05:16:32.878Z,19.60
2022-09-06T05:18:59.715Z,21.20
2022-09-06T05:21:27.217Z,22.30
2022-09-06T05:23:58.374Z,23.10
2022-09-06T05:26:25.641Z,24.20
2022-09-06T05:28:52.501Z,25.00
2022-09-06T05:31:25.094Z,25.90
2022-09-06T05:33:52.881Z,26.40
2022-09-06T05:36:19.750Z,26.80
2022-09-06T05:38:46.549Z,27.10
2022-09-06T05:41:13.329Z,27.20
2022-09-06T05:43:40.209Z,27.10
2022-09-06T05:46:07.122Z,27.00
2022-09-06T05:48:37.044Z,27.50
2022-09-06T05:51:08.379Z,27.70
2022-09-06T05:53:35.957Z,27.50
2022-09-06T05:56:02.925Z,27.90
2022-09-06T05:58:29.702Z,28.60
2022-09-06T06:01:08.537Z,29.00
2022-09-06T06:03:35.394Z,29.10
2022-09-06T06:06:02.204Z,29.50
2022-09-06T06:08:29.135Z,29.80
2022-09-06T06:10:58.671Z,30.10
2022-09-06T06:13:25.470Z,30.70
2022-09-06T06:15:52.238Z,31.30
2022-09-06T06:18:19.030Z,31.60
2022-09-06T06:20:45.788Z,32.20
2022-09-06T06:23:14.166Z,32.70
2022-09-06T06:25:40.976Z,33.10
2022-09-06T06:28:07.779Z,33.40
2022-09-06T06:30:34.559Z,33.40
2022-09-06T06:33:02.611Z,33.40
2022-09-06T06:35:29.442Z,33.60
2022-09-06T06:37:56.478Z,33.90
2022-09-06T06:40:23.262Z,34.30
2022-09-06T06:42:50.059Z,34.20
2022-09-06T06:45:17.054Z,34.50
2022-09-06T06:47:43.864Z,34.70
2022-09-06T06:50:10.788Z,35.00
2022-09-06T06:52:37.712Z,35.20
2022-09-06T06:55:06.015Z,35.40
2022-09-06T06:57:33.063Z,35.50
2022-09-06T06:59:59.895Z,35.60
2022-09-06T07:02:26.724Z,35.70
2022-09-06T07:04:53.572Z,35.70
2022-09-06T07:07:38.043Z,35.60
2022-09-06T07:12:53.992Z,36.00
2022-09-06T07:15:20.806Z,36.40
2022-09-06T07:17:47.612Z,36.30
2022-09-06T07:20:15.119Z,36.50
2022-09-06T07:22:42.585Z,36.40
2022-09-06T07:25:09.675Z,36.70
2022-09-06T07:27:51.791Z,36.50
2022-09-06T07:30:19.920Z,36.40
2022-09-06T07:32:46.950Z,36.40
2022-09-06T07:35:14.059Z,36.70
2022-09-06T07:37:41.090Z,37.10
2022-09-06T07:40:08.342Z,37.50
2022-09-06T07:42:36.370Z,37.50
2022-09-06T07:45:04.334Z,37.80
2022-09-06T07:55:33.487Z,38.80
2022-09-06T07:58:00.261Z,39.00
2022-09-06T08:00:27.366Z,38.90
2022-09-06T08:02:54.154Z,39.10
2022-09-06T08:10:54.478Z,40.10
2022-09-06T08:13:21.322Z,40.60
2022-09-06T08:15:48.166Z,41.00
2022-09-06T08:18:14.970Z,41.40
2022-09-06T08:20:41.767Z,41.60
2022-09-06T08:23:11.581Z,41.20
2022-09-06T08:25:38.385Z,40.80
2022-09-06T08:28:05.168Z,40.60
2022-09-06T08:30:32.772Z,40.50
2022-09-06T08:32:59.550Z,40.60
2022-09-06T08:35:26.322Z,40.50
2022-09-06T08:37:53.108Z,40.50
2022-09-06T08:40:20.723Z,40.30
2022-09-06T08:42:47.663Z,39.90
2022-09-06T08:45:15.939Z,39.50
2022-09-06T08:47:43.137Z,39.30
2022-09-06T08:50:09.916Z,39.30
2022-09-06T08:53:15.658Z,39.30
2022-09-06T08:55:38.830Z,39.40
2022-09-06T08:58:05.571Z,39.40
2022-09-06T09:00:32.698Z,39.10
2022-09-06T09:03:02.588Z,39.00
2022-09-06T09:05:30.750Z,39.10
2022-09-06T09:08:00.516Z,39.40
2022-09-06T09:10:31.056Z,39.80
2022-09-06T09:12:57.944Z,40.20
2022-09-06T09:15:24.741Z,41.00
2022-09-06T09:17:51.915Z,41.40
2022-09-06T09:20:18.828Z,41.70
2022-09-06T09:22:45.817Z,41.90
2022-09-06T09:25:22.699Z,42.20
2022-09-06T09:27:57.305Z,42.20
2022-09-06T09:33:20.936Z,42.10
2022-09-06T09:35:48.715Z,41.50
2022-09-06T09:38:26.361Z,41.10
2022-09-06T09:40:53.290Z,40.60
2022-09-06T09:43:21.469Z,40.30
2022-09-06T09:45:57.729Z,40.60
2022-09-06T09:48:27.198Z,40.00
2022-09-06T09:50:54.623Z,39.80
2022-09-06T09:53:22.372Z,40.30
2022-09-06T09:55:49.823Z,40.70
2022-09-06T09:58:21.602Z,41.00
2022-09-06T10:00:48.465Z,41.20
2022-09-06T10:03:16.224Z,41.30
2022-09-06T10:05:43.315Z,41.30
2022-09-06T10:08:10.909Z,41.20
2022-09-06T10:10:39.824Z,40.90
2022-09-06T10:13:08.206Z,41.10
2022-09-06T10:15:36.174Z,41.20
2022-09-06T10:18:03.004Z,40.90
2022-09-06T10:21:02.487Z,40.80
2022-09-06T10:26:31.084Z,39.80
2022-09-06T10:29:07.217Z,39.20
2022-09-06T10:31:39.814Z,38.50
2022-09-06T10:34:25.252Z,37.80
2022-09-06T10:36:52.049Z,37.10
2022-09-06T10:39:33.730Z,36.20
2022-09-06T10:42:10.800Z,35.60
2022-09-06T10:44:37.534Z,34.80
2022-09-06T10:47:09.124Z,34.30
2022-09-06T10:49:35.908Z,33.90
2022-09-06T10:52:03.143Z,33.40
2022-09-06T10:54:29.928Z,32.90
2022-09-06T10:56:58.358Z,32.40
2022-09-06T11:02:08.456Z,31.90
2022-09-06T11:07:29.638Z,31.70
2022-09-06T11:09:57.979Z,31.80
2022-09-06T11:12:30.540Z,31.80
2022-09-06T11:14:57.304Z,31.80
2022-09-06T11:17:30.073Z,31.80
2022-09-06T11:20:05.831Z,31.90
2022-09-06T11:22:59.093Z,31.80
2022-09-06T11:25:31.845Z,31.50
2022-09-06T11:27:59.428Z,31.30
2022-09-06T11:30:26.226Z,31.20
2022-09-06T11:33:03.385Z,31.10
2022-09-06T11:35:34.946Z,31.00
2022-09-06T11:38:25.127Z,31.00
2022-09-06T11:40:54.821Z,31.10
2022-09-06T11:43:41.922Z,31.20
2022-09-06T11:46:08.732Z,31.30
2022-09-06T11:49:01.570Z,31.40
2022-09-06T11:51:46.855Z,31.50
2022-09-06T11:54:21.851Z,31.60
2022-09-06T11:56:53.107Z,31.70
2022-09-06T11:59:24.960Z,31.80
2022-09-06T12:02:02.128Z,31.80
2022-09-06T12:04:47.310Z,31.90
2022-09-06T12:07:14.106Z,31.90
2022-09-06T12:09:43.677Z,32.00
2022-09-06T12:12:14.764Z,32.00
2022-09-06T12:14:46.215Z,31.90
2022-09-06T12:17:13.106Z,31.90
2022-09-06T12:19:46.070Z,32.00
2022-09-06T12:22:34.200Z,31.90
2022-09-06T12:25:01.807Z,31.80
2022-09-06T12:27:32.049Z,31.70
2022-09-06T12:30:05.595Z,31.60
2022-09-06T12:32:36.934Z,31.70
2022-09-06T12:37:58.477Z,31.50
2022-09-06T12:40:26.097Z,31.40
2022-09-06T12:42:53.015Z,31.40
2022-09-06T12:45:24.000Z,31.30
2022-09-06T12:48:04.163Z,31.40
2022-09-06T12:50:31.615Z,31.30
2022-09-06T12:52:59.523Z,31.20
2022-09-06T12:55:27.737Z,31.10
2022-09-06T12:57:55.465Z,31.20
2022-09-06T13:00:22.755Z,31.20
2022-09-06T13:02:58.686Z,31.20
2022-09-06T13:05:25.648Z,31.30
2022-09-06T13:07:54.267Z,31.30
2022-09-06T13:10:22.346Z,31.30
2022-09-06T13:12:50.708Z,31.20
2022-09-06T13:15:18.150Z,31.10
2022-09-06T13:17:45.271Z,31.10
2022-09-06T13:20:12.236Z,31.00
2022-09-06T13:22:48.855Z,30.90
2022-09-06T13:25:20.460Z,30.90
2022-09-06T13:27:57.834Z,30.80
2022-09-06T13:30:37.034Z,30.80
2022-09-06T13:33:04.503Z,30.70
2022-09-06T13:35:32.115Z,30.80
2022-09-06T13:38:17.874Z,30.90
2022-09-06T13:41:09.818Z,30.90
2022-09-06T13:43:33.495Z,30.80
2022-09-06T13:46:03.977Z,30.70
2022-09-06T13:48:30.778Z,30.60
2022-09-06T13:50:58.304Z,30.60
2022-09-06T13:53:25.131Z,30.70
2022-09-06T13:55:52.859Z,30.80
2022-09-06T13:58:19.608Z,30.80
2022-09-06T14:00:46.997Z,30.80
2022-09-06T14:03:15.060Z,30.80
2022-09-06T14:05:41.845Z,30.80
2022-09-06T14:08:08.650Z,30.90
2022-09-06T14:10:35.436Z,30.90
2022-09-06T14:13:02.205Z,31.00
2022-09-06T14:15:29.151Z,31.00
2022-09-06T14:17:55.976Z,31.00
2022-09-06T14:20:22.781Z,31.00
2022-09-06T14:22:49.559Z,30.90
2022-09-06T14:25:16.956Z,30.90
2022-09-06T14:27:43.718Z,30.80
2022-09-06T14:30:11.001Z,30.60
2022-09-06T14:32:37.789Z,30.50
2022-09-06T14:35:05.883Z,30.40
2022-09-06T14:37:33.219Z,30.30
2022-09-06T14:40:00.079Z,30.20
2022-09-06T14:42:28.496Z,30.20
2022-09-06T14:44:55.272Z,30.20
2022-09-06T14:47:22.159Z,30.30
2022-09-06T14:49:48.940Z,30.30
2022-09-06T14:52:15.722Z,30.20
2022-09-06T14:54:42.529Z,30.20
2022-09-06T14:57:09.296Z,30.30
2022-09-06T14:59:36.310Z,30.30
2022-09-06T15:02:03.521Z,30.30
2022-09-06T15:04:30.352Z,30.40
2022-09-06T15:06:57.137Z,30.40
2022-09-06T15:09:24.377Z,30.40
2022-09-06T15:11:51.725Z,30.40
2022-09-06T15:14:22.576Z,30.30
2022-09-06T15:16:53.455Z,30.30
2022-09-06T15:19:22.897Z,30.30
2022-09-06T15:21:49.664Z,30.30
2022-09-06T15:24:16.476Z,30.30
2022-09-06T15:26:43.376Z,30.30
2022-09-06T15:29:10.867Z,30.20
2022-09-06T15:31:38.557Z,30.20
2022-09-06T15:34:05.677Z,30.10
2022-09-06T15:36:33.412Z,30.10
2022-09-06T15:39:01.140Z,30.10
2022-09-06T15:41:29.079Z,30.00
2022-09-06T15:43:56.863Z,30.00
2022-09-06T15:46:35.980Z,30.00
2022-09-06T15:49:04.131Z,29.90
2022-09-06T15:51:31.028Z,29.90
2022-09-06T15:53:58.484Z,29.90
2022-09-06T15:56:25.279Z,29.80
2022-09-06T15:58:52.164Z,29.80
2022-09-06T16:01:19.621Z,29.80
2022-09-06T16:03:47.452Z,29.70
2022-09-06T16:06:30.372Z,29.60
2022-09-06T16:09:01.035Z,29.60
2022-09-06T16:11:28.066Z,29.50
2022-09-06T16:13:54.954Z,29.30
2022-09-06T16:16:22.784Z,29.20
2022-09-06T16:18:49.739Z,29.10
2022-09-06T16:21:24.407Z,29.00
2022-09-06T16:23:54.999Z,28.90
2022-09-06T16:26:22.124Z,28.80
2022-09-06T16:28:49.680Z,28.60
2022-09-06T16:31:16.566Z,28.50
2022-09-06T16:33:45.231Z,28.40
2022-09-06T16:36:12.167Z,28.20
2022-09-06T16:38:39.099Z,28.00
2022-09-06T16:41:10.055Z,27.90
2022-09-06T16:43:36.875Z,27.70
2022-09-06T16:46:04.348Z,27.60
2022-09-06T16:48:31.191Z,27.40
2022-09-06T16:50:58.417Z,27.20
2022-09-06T16:53:25.230Z,27.00
2022-09-06T16:55:52.040Z,26.90
2022-09-06T16:58:18.810Z,26.80
2022-09-06T17:00:45.649Z,26.70
2022-09-06T17:03:15.447Z,26.70
2022-09-06T17:05:42.292Z,26.50
2022-09-06T17:08:09.963Z,26.40
2022-09-06T17:10:39.726Z,26.40
2022-09-06T17:13:07.094Z,26.30
2022-09-06T17:15:53.816Z,26.30
2022-09-06T17:18:22.138Z,26.20
2022-09-06T17:20:58.548Z,26.00
2022-09-06T17:23:25.464Z,25.90
2022-09-06T17:25:52.369Z,25.90
2022-09-06T17:28:19.227Z,25.90
2022-09-06T17:30:46.174Z,25.80
2022-09-06T17:33:13.577Z,25.70
2022-09-06T17:35:40.433Z,25.60
2022-09-06T17:38:07.192Z,25.50
2022-09-06T17:40:33.995Z,25.40
2022-09-06T17:43:00.832Z,25.40
2022-09-06T17:45:27.767Z,25.30
2022-09-06T17:47:54.546Z,25.20
2022-09-06T17:50:21.385Z,25.10
2022-09-06T17:52:50.247Z,25.00
2022-09-06T17:55:17.068Z,24.90
2022-09-06T17:57:43.866Z,24.90
2022-09-06T18:00:11.265Z,24.80
2022-09-06T18:02:38.761Z,24.70
2022-09-06T18:05:05.746Z,24.60
2022-09-06T18:07:32.590Z,24.60
2022-09-06T18:09:59.359Z,24.60
2022-09-06T18:12:26.809Z,24.50
2022-09-06T18:14:53.854Z,24.40
2022-09-06T18:17:20.709Z,24.40
2022-09-06T18:19:47.472Z,24.30
2022-09-06T18:22:14.286Z,24.20
2022-09-06T18:24:41.090Z,24.20
2022-09-06T18:27:07.922Z,24.10
2022-09-06T18:29:35.068Z,23.90
2022-09-06T18:32:02.187Z,23.70
2022-09-06T18:34:29.226Z,23.60
2022-09-06T18:36:56.068Z,23.50
2022-09-06T18:39:22.872Z,23.60
2022-09-06T18:42:01.738Z,23.60
2022-09-06T18:44:33.139Z,23.60
2022-09-06T18:47:01.629Z,23.50
2022-09-06T18:49:28.948Z,23.40
2022-09-06T18:51:58.685Z,23.40
2022-09-06T18:54:26.242Z,23.30
2022-09-06T18:56:53.425Z,23.30
2022-09-06T18:59:20.565Z,23.30
2022-09-06T19:01:47.854Z,23.20
2022-09-06T19:04:14.941Z,23.30
2022-09-06T19:06:42.470Z,23.30
2022-09-06T19:09:11.008Z,23.30
2022-09-06T19:11:38.093Z,23.20
2022-09-06T19:14:05.811Z,23.20
2022-09-06T19:16:32.935Z,23.20
2022-09-06T19:19:04.015Z,23.10
2022-09-06T19:21:31.054Z,23.10
2022-09-06T19:23:59.068Z,23.10
2022-09-06T19:26:28.042Z,22.90
2022-09-06T19:28:59.992Z,22.90
2022-09-06T19:31:31.198Z,22.80
2022-09-06T19:33:58.250Z,22.80
2022-09-06T19:36:25.817Z,22.70
2022-09-06T19:39:05.126Z,22.80
2022-09-06T19:41:32.959Z,22.70
2022-09-06T19:44:00.232Z,22.60
2022-09-06T19:46:27.681Z,22.60
2022-09-06T19:48:56.159Z,22.50
2022-09-06T19:51:23.426Z,22.50
2022-09-06T19:53:53.170Z,22.50
2022-09-06T19:56:21.324Z,22.40
2022-09-06T19:58:48.106Z,22.40
2022-09-06T20:01:18.066Z,22.30
2022-09-06T20:03:45.020Z,22.20
2022-09-06T20:06:12.121Z,22.20
2022-09-06T20:08:39.181Z,22.10
2022-09-06T20:11:06.552Z,22.00
2022-09-06T20:13:36.722Z,22.00
2022-09-06T20:16:06.904Z,21.90
2022-09-06T20:18:34.020Z,21.90
2022-09-06T20:21:00.884Z,22.00
2022-09-06T20:23:28.379Z,22.00
2022-09-06T20:25:58.823Z,21.90
2022-09-06T20:28:26.095Z,21.90
2022-09-06T20:30:52.911Z,21.80
2022-09-06T20:33:19.691Z,21.70
2022-09-06T20:36:03.069Z,21.70
2022-09-06T20:38:30.650Z,21.70
2022-09-06T20:40:58.506Z,21.60
2022-09-06T20:43:25.639Z,21.60
2022-09-06T20:45:52.848Z,21.50
2022-09-06T20:48:19.818Z,21.40
2022-09-06T20:50:47.096Z,21.30
2022-09-06T20:53:13.866Z,21.30
2022-09-06T20:55:40.667Z,21.20
2022-09-06T20:58:07.464Z,21.20
2022-09-06T21:00:34.378Z,21.20
2022-09-06T21:03:01.193Z,21.20
2022-09-06T21:05:28.141Z,21.20
2022-09-06T21:07:54.929Z,21.20
2022-09-06T21:10:21.714Z,21.10
2022-09-06T21:12:48.794Z,21.10
2022-09-06T21:15:15.656Z,21.00
2022-09-06T21:17:42.449Z,21.00
2022-09-06T21:20:09.611Z,20.90
2022-09-06T21:22:36.463Z,20.90
2022-09-06T21:25:03.466Z,20.80
2022-09-06T21:27:31.133Z,20.80
2022-09-06T21:29:57.981Z,20.80
2022-09-06T21:32:26.464Z,20.80
2022-09-06T21:34:53.275Z,20.70
2022-09-06T21:37:20.106Z,20.70
2022-09-06T21:39:47.020Z,20.70
2022-09-06T21:42:13.837Z,20.70
2022-09-06T21:44:40.640Z,20.60
2022-09-06T21:47:07.717Z,20.60
2022-09-06T21:49:34.583Z,20.50
2022-09-06T21:52:01.481Z,20.50
2022-09-06T21:54:29.022Z,20.50
2022-09-06T21:56:55.801Z,20.40
2022-09-06T21:59:22.629Z,20.50
2022-09-06T22:01:49.426Z,20.50
2022-09-06T22:04:16.335Z,20.50
2022-09-06T22:06:43.130Z,20.50
2022-09-06T22:09:11.174Z,20.50
2022-09-06T22:11:41.422Z,20.50
2022-09-06T22:14:09.168Z,20.50
2022-09-06T22:16:37.047Z,20.50
2022-09-06T22:19:04.929Z,20.40
2022-09-06T22:21:31.759Z,20.40
2022-09-06T22:24:01.970Z,20.40
2022-09-06T22:26:29.437Z,20.40
2022-09-06T22:28:56.934Z,20.40
2022-09-06T22:31:23.941Z,20.40
2022-09-06T22:33:50.891Z,20.40
2022-09-06T22:36:17.669Z,20.30
2022-09-06T22:38:44.610Z,20.20
2022-09-06T22:41:11.507Z,20.20
2022-09-06T22:43:38.260Z,20.10
2022-09-06T22:46:05.531Z,20.20
2022-09-06T22:48:32.808Z,20.10
2022-09-06T22:51:00.667Z,20.20
2022-09-06T22:53:28.359Z,20.20
2022-09-06T22:55:55.606Z,20.10
2022-09-06T22:58:22.870Z,20.10
2022-09-06T23:00:49.696Z,20.10
2022-09-06T23:03:16.537Z,20.00
2022-09-06T23:05:43.374Z,20.00
2022-09-06T23:08:10.394Z,19.90
2022-09-06T23:10:41.738Z,19.90
2022-09-06T23:13:08.872Z,19.90
2022-09-06T23:15:35.934Z,19.90
2022-09-06T23:18:02.752Z,19.80
2022-09-06T23:20:29.604Z,19.80
2022-09-06T23:22:56.387Z,19.80
2022-09-06T23:25:23.338Z,19.90
2022-09-06T23:27:50.171Z,19.80
2022-09-06T23:30:17.157Z,19.90
2022-09-06T23:32:43.935Z,19.90
2022-09-06T23:35:10.720Z,19.90
2022-09-06T23:37:37.528Z,19.90
2022-09-06T23:40:08.835Z,19.90
2022-09-06T23:42:35.941Z,19.90
2022-09-06T23:45:03.507Z,19.90
2022-09-06T23:47:30.283Z,19.90
2022-09-06T23:49:57.054Z,19.90
2022-09-06T23:52:23.889Z,19.80
2022-09-06T23:54:50.772Z,19.80
2022-09-06T23:57:17.560Z,19.80
2022-09-06T23:59:44.337Z,19.70
